sensor_id;sensor_type;location;lat;lon;timestamp;P1;durP1;ratioP1;P2;durP2;ratioP2
42598;SDS011;28225;42.714;23.860;2022-08-19T00:00:45;6.68;;;6.07;;
42598;SDS011;28225;42.714;23.860;2022-08-19T00:03:10;7.28;;;5.85;;
42598;SDS011;28225;42.714;23.860;2022-08-19T00:05:35;8.05;;;6.13;;
42598;SDS011;28225;42.714;23.860;2022-08-19T00:08:01;6.93;;;6.22;;
42598;SDS011;28225;42.714;23.860;2022-08-19T00:10:27;8.23;;;6.18;;
42598;SDS011;28225;42.714;23.860;2022-08-19T00:12:52;7.00;;;6.07;;
42598;SDS011;28225;42.714;23.860;2022-08-19T00:15:19;7.15;;;6.45;;
42598;SDS011;28225;42.714;23.860;2022-08-19T00:17:46;7.22;;;6.53;;
42598;SDS011;28225;42.714;23.860;2022-08-19T00:20:14;7.50;;;6.35;;
42598;SDS011;28225;42.714;23.860;2022-08-19T00:22:42;7.82;;;7.03;;
42598;SDS011;28225;42.714;23.860;2022-08-19T00:25:09;7.90;;;6.05;;
42598;SDS011;28225;42.714;23.860;2022-08-19T00:27:35;6.88;;;6.18;;
42598;SDS011;28225;42.714;23.860;2022-08-19T00:30:00;6.47;;;5.88;;
42598;SDS011;28225;42.714;23.860;2022-08-19T00:32:28;7.80;;;6.22;;
42598;SDS011;28225;42.714;23.860;2022-08-19T00:34:54;7.10;;;6.38;;
42598;SDS011;28225;42.714;23.860;2022-08-19T00:37:20;6.80;;;6.20;;
42598;SDS011;28225;42.714;23.860;2022-08-19T00:39:48;7.68;;;6.50;;
42598;SDS011;28225;42.714;23.860;2022-08-19T00:42:14;23.67;;;6.43;;
42598;SDS011;28225;42.714;23.860;2022-08-19T00:44:40;9.02;;;6.45;;
42598;SDS011;28225;42.714;23.860;2022-08-19T00:47:08;6.25;;;5.65;;
42598;SDS011;28225;42.714;23.860;2022-08-19T00:49:34;8.32;;;6.10;;
42598;SDS011;28225;42.714;23.860;2022-08-19T00:52:09;7.35;;;6.00;;
42598;SDS011;28225;42.714;23.860;2022-08-19T00:54:40;8.88;;;6.18;;
42598;SDS011;28225;42.714;23.860;2022-08-19T00:57:07;7.93;;;5.75;;
42598;SDS011;28225;42.714;23.860;2022-08-19T00:59:37;6.50;;;5.85;;
42598;SDS011;28225;42.714;23.860;2022-08-19T01:02:04;6.72;;;6.13;;
42598;SDS011;28225;42.714;23.860;2022-08-19T01:04:29;6.90;;;6.30;;
42598;SDS011;28225;42.714;23.860;2022-08-19T01:06:55;6.45;;;5.85;;
42598;SDS011;28225;42.714;23.860;2022-08-19T01:09:21;6.95;;;6.25;;
42598;SDS011;28225;42.714;23.860;2022-08-19T01:11:47;6.85;;;6.15;;
42598;SDS011;28225;42.714;23.860;2022-08-19T01:14:13;6.22;;;5.72;;
42598;SDS011;28225;42.714;23.860;2022-08-19T01:16:38;8.02;;;6.38;;
42598;SDS011;28225;42.714;23.860;2022-08-19T01:19:12;7.00;;;6.30;;
42598;SDS011;28225;42.714;23.860;2022-08-19T01:21:52;6.72;;;5.93;;
42598;SDS011;28225;42.714;23.860;2022-08-19T01:24:23;6.85;;;6.15;;
42598;SDS011;28225;42.714;23.860;2022-08-19T01:26:48;7.38;;;6.50;;
42598;SDS011;28225;42.714;23.860;2022-08-19T01:29:14;11.38;;;6.38;;
42598;SDS011;28225;42.714;23.860;2022-08-19T01:31:39;7.05;;;6.22;;
42598;SDS011;28225;42.714;23.860;2022-08-19T01:34:05;6.68;;;5.78;;
42598;SDS011;28225;42.714;23.860;2022-08-19T01:38:58;8.50;;;6.65;;
42598;SDS011;28225;42.714;23.860;2022-08-19T01:41:25;6.97;;;6.00;;
42598;SDS011;28225;42.714;23.860;2022-08-19T01:43:51;6.70;;;6.10;;
42598;SDS011;28225;42.714;23.860;2022-08-19T01:46:17;8.50;;;5.72;;
42598;SDS011;28225;42.714;23.860;2022-08-19T01:48:43;8.68;;;6.07;;
42598;SDS011;28225;42.714;23.860;2022-08-19T01:51:10;8.65;;;6.90;;
42598;SDS011;28225;42.714;23.860;2022-08-19T01:53:36;9.50;;;6.40;;
42598;SDS011;28225;42.714;23.860;2022-08-19T01:56:02;7.60;;;6.32;;
42598;SDS011;28225;42.714;23.860;2022-08-19T01:58:32;7.47;;;6.65;;
42598;SDS011;28225;42.714;23.860;2022-08-19T02:01:01;7.63;;;6.47;;
42598;SDS011;28225;42.714;23.860;2022-08-19T02:03:27;8.25;;;6.20;;
42598;SDS011;28225;42.714;23.860;2022-08-19T02:05:57;7.60;;;6.32;;
42598;SDS011;28225;42.714;23.860;2022-08-19T02:08:25;6.85;;;6.15;;
42598;SDS011;28225;42.714;23.860;2022-08-19T02:10:54;7.22;;;6.43;;
42598;SDS011;28225;42.714;23.860;2022-08-19T02:13:20;7.65;;;6.18;;
42598;SDS011;28225;42.714;23.860;2022-08-19T02:15:46;7.97;;;6.50;;
42598;SDS011;28225;42.714;23.860;2022-08-19T02:18:11;9.63;;;5.95;;
42598;SDS011;28225;42.714;23.860;2022-08-19T02:20:37;9.02;;;6.35;;
42598;SDS011;28225;42.714;23.860;2022-08-19T02:23:05;6.43;;;5.82;;
42598;SDS011;28225;42.714;23.860;2022-08-19T02:25:31;6.60;;;6.00;;
42598;SDS011;28225;42.714;23.860;2022-08-19T02:27:56;6.88;;;5.82;;
42598;SDS011;28225;42.714;23.860;2022-08-19T02:30:22;7.18;;;5.85;;
42598;SDS011;28225;42.714;23.860;2022-08-19T02:32:47;7.97;;;6.47;;
42598;SDS011;28225;42.714;23.860;2022-08-19T02:35:13;12.15;;;6.63;;
42598;SDS011;28225;42.714;23.860;2022-08-19T02:37:40;7.18;;;5.90;;
42598;SDS011;28225;42.714;23.860;2022-08-19T02:40:24;6.82;;;6.15;;
42598;SDS011;28225;42.714;23.860;2022-08-19T02:42:50;6.78;;;6.18;;
42598;SDS011;28225;42.714;23.860;2022-08-19T02:45:15;9.48;;;6.10;;
42598;SDS011;28225;42.714;23.860;2022-08-19T02:47:41;7.70;;;6.55;;
42598;SDS011;28225;42.714;23.860;2022-08-19T02:50:06;6.80;;;6.20;;
42598;SDS011;28225;42.714;23.860;2022-08-19T02:52:33;7.47;;;6.75;;
42598;SDS011;28225;42.714;23.860;2022-08-19T02:54:59;8.88;;;6.55;;
42598;SDS011;28225;42.714;23.860;2022-08-19T02:57:25;9.68;;;6.50;;
42598;SDS011;28225;42.714;23.860;2022-08-19T02:59:51;6.40;;;5.80;;
42598;SDS011;28225;42.714;23.860;2022-08-19T03:02:16;7.38;;;6.65;;
42598;SDS011;28225;42.714;23.860;2022-08-19T03:04:42;7.50;;;6.80;;
42598;SDS011;28225;42.714;23.860;2022-08-19T03:07:08;8.50;;;6.38;;
42598;SDS011;28225;42.714;23.860;2022-08-19T03:09:35;7.03;;;6.35;;
42598;SDS011;28225;42.714;23.860;2022-08-19T03:12:02;6.50;;;5.40;;
42598;SDS011;28225;42.714;23.860;2022-08-19T03:14:30;6.90;;;6.22;;
42598;SDS011;28225;42.714;23.860;2022-08-19T03:16:56;8.88;;;6.25;;
42598;SDS011;28225;42.714;23.860;2022-08-19T03:19:22;7.40;;;6.28;;
42598;SDS011;28225;42.714;23.860;2022-08-19T03:21:48;7.53;;;6.38;;
42598;SDS011;28225;42.714;23.860;2022-08-19T03:24:15;9.02;;;6.30;;
42598;SDS011;28225;42.714;23.860;2022-08-19T03:26:42;6.72;;;6.03;;
42598;SDS011;28225;42.714;23.860;2022-08-19T03:29:09;8.63;;;5.93;;
42598;SDS011;28225;42.714;23.860;2022-08-19T03:31:36;8.13;;;6.07;;
42598;SDS011;28225;42.714;23.860;2022-08-19T03:34:03;7.20;;;6.20;;
42598;SDS011;28225;42.714;23.860;2022-08-19T03:36:29;8.48;;;6.93;;
42598;SDS011;28225;42.714;23.860;2022-08-19T03:38:56;7.18;;;6.47;;
42598;SDS011;28225;42.714;23.860;2022-08-19T03:41:23;8.43;;;6.72;;
42598;SDS011;28225;42.714;23.860;2022-08-19T03:43:51;8.53;;;6.43;;
42598;SDS011;28225;42.714;23.860;2022-08-19T03:46:18;9.50;;;5.97;;
42598;SDS011;28225;42.714;23.860;2022-08-19T03:48:50;6.75;;;6.15;;
42598;SDS011;28225;42.714;23.860;2022-08-19T03:51:37;7.32;;;6.50;;
42598;SDS011;28225;42.714;23.860;2022-08-19T03:54:05;7.88;;;6.20;;
42598;SDS011;28225;42.714;23.860;2022-08-19T03:56:33;8.80;;;6.60;;
42598;SDS011;28225;42.714;23.860;2022-08-19T03:58:59;9.50;;;6.85;;
42598;SDS011;28225;42.714;23.860;2022-08-19T04:01:26;7.85;;;6.50;;
42598;SDS011;28225;42.714;23.860;2022-08-19T04:03:52;7.57;;;6.70;;
42598;SDS011;28225;42.714;23.860;2022-08-19T04:06:31;9.30;;;6.25;;
42598;SDS011;28225;42.714;23.860;2022-08-19T04:08:59;8.10;;;6.53;;
42598;SDS011;28225;42.714;23.860;2022-08-19T04:11:28;7.57;;;6.82;;
42598;SDS011;28225;42.714;23.860;2022-08-19T04:13:56;40.28;;;8.82;;
42598;SDS011;28225;42.714;23.860;2022-08-19T04:16:23;6.32;;;5.72;;
42598;SDS011;28225;42.714;23.860;2022-08-19T04:18:50;9.48;;;7.15;;
42598;SDS011;28225;42.714;23.860;2022-08-19T04:21:19;8.77;;;6.45;;
42598;SDS011;28225;42.714;23.860;2022-08-19T04:23:46;8.65;;;6.80;;
42598;SDS011;28225;42.714;23.860;2022-08-19T04:26:15;8.05;;;6.22;;
42598;SDS011;28225;42.714;23.860;2022-08-19T04:28:43;9.10;;;6.32;;
42598;SDS011;28225;42.714;23.860;2022-08-19T04:31:22;7.38;;;6.75;;
42598;SDS011;28225;42.714;23.860;2022-08-19T04:33:52;11.15;;;6.72;;
42598;SDS011;28225;42.714;23.860;2022-08-19T04:39:27;18.45;;;7.35;;
42598;SDS011;28225;42.714;23.860;2022-08-19T04:42:13;10.23;;;6.57;;
42598;SDS011;28225;42.714;23.860;2022-08-19T04:44:58;10.70;;;6.43;;
42598;SDS011;28225;42.714;23.860;2022-08-19T04:47:24;8.40;;;7.43;;
42598;SDS011;28225;42.714;23.860;2022-08-19T04:49:49;8.10;;;6.85;;
42598;SDS011;28225;42.714;23.860;2022-08-19T04:52:15;12.27;;;7.13;;
42598;SDS011;28225;42.714;23.860;2022-08-19T04:54:40;20.10;;;7.07;;
42598;SDS011;28225;42.714;23.860;2022-08-19T04:57:07;28.58;;;7.55;;
42598;SDS011;28225;42.714;23.860;2022-08-19T04:59:35;8.07;;;7.15;;
42598;SDS011;28225;42.714;23.860;2022-08-19T05:02:02;8.55;;;7.68;;
42598;SDS011;28225;42.714;23.860;2022-08-19T05:04:28;9.35;;;7.53;;
42598;SDS011;28225;42.714;23.860;2022-08-19T05:06:55;8.27;;;7.47;;
42598;SDS011;28225;42.714;23.860;2022-08-19T05:09:21;8.38;;;7.50;;
42598;SDS011;28225;42.714;23.860;2022-08-19T05:11:46;11.10;;;8.25;;
42598;SDS011;28225;42.714;23.860;2022-08-19T05:14:13;10.63;;;7.53;;
42598;SDS011;28225;42.714;23.860;2022-08-19T05:16:38;13.55;;;7.45;;
42598;SDS011;28225;42.714;23.860;2022-08-19T05:19:04;18.80;;;8.57;;
42598;SDS011;28225;42.714;23.860;2022-08-19T05:21:48;15.88;;;8.15;;
42598;SDS011;28225;42.714;23.860;2022-08-19T05:24:33;13.15;;;7.43;;
42598;SDS011;28225;42.714;23.860;2022-08-19T05:26:59;7.60;;;6.88;;
42598;SDS011;28225;42.714;23.860;2022-08-19T05:29:25;8.40;;;7.53;;
42598;SDS011;28225;42.714;23.860;2022-08-19T05:31:52;8.63;;;7.78;;
42598;SDS011;28225;42.714;23.860;2022-08-19T05:34:18;12.50;;;8.38;;
42598;SDS011;28225;42.714;23.860;2022-08-19T05:36:47;10.32;;;8.50;;
42598;SDS011;28225;42.714;23.860;2022-08-19T05:39:15;11.95;;;7.78;;
42598;SDS011;28225;42.714;23.860;2022-08-19T05:41:43;10.15;;;7.32;;
42598;SDS011;28225;42.714;23.860;2022-08-19T05:44:12;9.68;;;7.43;;
42598;SDS011;28225;42.714;23.860;2022-08-19T05:46:38;12.95;;;7.57;;
42598;SDS011;28225;42.714;23.860;2022-08-19T05:49:07;25.08;;;8.02;;
42598;SDS011;28225;42.714;23.860;2022-08-19T05:54:00;8.73;;;7.53;;
42598;SDS011;28225;42.714;23.860;2022-08-19T05:56:26;8.45;;;7.25;;
42598;SDS011;28225;42.714;23.860;2022-08-19T05:58:52;8.07;;;7.28;;
42598;SDS011;28225;42.714;23.860;2022-08-19T06:01:19;10.20;;;6.78;;
42598;SDS011;28225;42.714;23.860;2022-08-19T06:03:44;10.52;;;7.20;;
42598;SDS011;28225;42.714;23.860;2022-08-19T06:06:11;6.90;;;6.30;;
42598;SDS011;28225;42.714;23.860;2022-08-19T06:08:40;9.48;;;6.55;;
42598;SDS011;28225;42.714;23.860;2022-08-19T06:11:12;11.57;;;7.22;;
42598;SDS011;28225;42.714;23.860;2022-08-19T06:13:43;7.57;;;6.82;;
42598;SDS011;28225;42.714;23.860;2022-08-19T06:16:12;8.32;;;6.65;;
42598;SDS011;28225;42.714;23.860;2022-08-19T06:18:44;9.52;;;5.97;;
42598;SDS011;28225;42.714;23.860;2022-08-19T06:21:10;6.65;;;6.00;;
42598;SDS011;28225;42.714;23.860;2022-08-19T06:23:35;9.10;;;5.75;;
42598;SDS011;28225;42.714;23.860;2022-08-19T06:26:01;9.38;;;6.03;;
42598;SDS011;28225;42.714;23.860;2022-08-19T06:28:26;6.78;;;5.82;;
42598;SDS011;28225;42.714;23.860;2022-08-19T06:30:51;6.28;;;5.57;;
42598;SDS011;28225;42.714;23.860;2022-08-19T06:33:17;14.05;;;6.60;;
42598;SDS011;28225;42.714;23.860;2022-08-19T06:35:42;6.10;;;5.50;;
42598;SDS011;28225;42.714;23.860;2022-08-19T06:38:08;6.45;;;5.80;;
42598;SDS011;28225;42.714;23.860;2022-08-19T06:40:34;7.25;;;5.50;;
42598;SDS011;28225;42.714;23.860;2022-08-19T06:43:01;7.07;;;5.55;;
42598;SDS011;28225;42.714;23.860;2022-08-19T06:45:27;6.32;;;5.45;;
42598;SDS011;28225;42.714;23.860;2022-08-19T06:47:53;11.85;;;6.60;;
42598;SDS011;28225;42.714;23.860;2022-08-19T06:50:22;5.63;;;5.07;;
42598;SDS011;28225;42.714;23.860;2022-08-19T06:52:48;5.03;;;4.53;;
42598;SDS011;28225;42.714;23.860;2022-08-19T06:55:14;5.97;;;5.45;;
42598;SDS011;28225;42.714;23.860;2022-08-19T06:57:40;6.30;;;5.18;;
42598;SDS011;28225;42.714;23.860;2022-08-19T07:00:08;5.63;;;4.95;;
42598;SDS011;28225;42.714;23.860;2022-08-19T07:02:39;5.85;;;4.70;;
42598;SDS011;28225;42.714;23.860;2022-08-19T07:05:05;10.60;;;5.00;;
42598;SDS011;28225;42.714;23.860;2022-08-19T07:07:32;36.90;;;7.07;;
42598;SDS011;28225;42.714;23.860;2022-08-19T07:09:58;9.60;;;5.07;;
42598;SDS011;28225;42.714;23.860;2022-08-19T07:12:24;5.97;;;4.45;;
42598;SDS011;28225;42.714;23.860;2022-08-19T07:14:49;5.75;;;4.60;;
42598;SDS011;28225;42.714;23.860;2022-08-19T07:17:15;6.15;;;4.93;;
42598;SDS011;28225;42.714;23.860;2022-08-19T07:19:40;5.63;;;5.10;;
42598;SDS011;28225;42.714;23.860;2022-08-19T07:22:07;5.65;;;4.63;;
42598;SDS011;28225;42.714;23.860;2022-08-19T07:24:34;4.95;;;4.13;;
42598;SDS011;28225;42.714;23.860;2022-08-19T07:27:00;5.95;;;5.00;;
42598;SDS011;28225;42.714;23.860;2022-08-19T07:29:28;4.57;;;4.18;;
42598;SDS011;28225;42.714;23.860;2022-08-19T07:31:55;5.05;;;4.63;;
42598;SDS011;28225;42.714;23.860;2022-08-19T07:34:21;5.10;;;4.35;;
42598;SDS011;28225;42.714;23.860;2022-08-19T07:36:48;5.07;;;4.10;;
42598;SDS011;28225;42.714;23.860;2022-08-19T07:39:15;9.40;;;4.25;;
42598;SDS011;28225;42.714;23.860;2022-08-19T07:41:43;4.97;;;4.40;;
42598;SDS011;28225;42.714;23.860;2022-08-19T07:44:09;4.28;;;3.97;;
42598;SDS011;28225;42.714;23.860;2022-08-19T07:46:36;4.03;;;3.63;;
42598;SDS011;28225;42.714;23.860;2022-08-19T07:49:03;3.95;;;3.55;;
42598;SDS011;28225;42.714;23.860;2022-08-19T07:51:30;4.18;;;3.65;;
42598;SDS011;28225;42.714;23.860;2022-08-19T07:53:55;3.47;;;3.17;;
42598;SDS011;28225;42.714;23.860;2022-08-19T07:56:21;6.05;;;3.33;;
42598;SDS011;28225;42.714;23.860;2022-08-19T07:58:48;4.25;;;3.85;;
42598;SDS011;28225;42.714;23.860;2022-08-19T08:01:16;5.75;;;3.72;;
42598;SDS011;28225;42.714;23.860;2022-08-19T08:03:44;4.55;;;3.40;;
42598;SDS011;28225;42.714;23.860;2022-08-19T08:06:28;6.70;;;3.53;;
42598;SDS011;28225;42.714;23.860;2022-08-19T08:09:13;4.53;;;2.92;;
42598;SDS011;28225;42.714;23.860;2022-08-19T08:11:50;6.15;;;3.42;;
42598;SDS011;28225;42.714;23.860;2022-08-19T08:14:22;74.53;;;9.52;;
42598;SDS011;28225;42.714;23.860;2022-08-19T08:17:00;3.47;;;3.03;;
42598;SDS011;28225;42.714;23.860;2022-08-19T08:19:27;3.03;;;2.83;;
42598;SDS011;28225;42.714;23.860;2022-08-19T08:21:54;3.45;;;3.05;;
42598;SDS011;28225;42.714;23.860;2022-08-19T08:24:21;5.80;;;3.13;;
42598;SDS011;28225;42.714;23.860;2022-08-19T08:26:46;3.80;;;3.47;;
42598;SDS011;28225;42.714;23.860;2022-08-19T08:29:12;4.20;;;3.45;;
42598;SDS011;28225;42.714;23.860;2022-08-19T08:31:43;3.72;;;2.97;;
42598;SDS011;28225;42.714;23.860;2022-08-19T08:34:09;3.50;;;3.20;;
42598;SDS011;28225;42.714;23.860;2022-08-19T08:36:37;8.70;;;3.45;;
42598;SDS011;28225;42.714;23.860;2022-08-19T08:39:07;3.55;;;3.25;;
42598;SDS011;28225;42.714;23.860;2022-08-19T08:44:44;5.57;;;2.97;;
42598;SDS011;28225;42.714;23.860;2022-08-19T08:47:19;3.10;;;2.83;;
42598;SDS011;28225;42.714;23.860;2022-08-19T08:49:49;9.23;;;3.35;;
42598;SDS011;28225;42.714;23.860;2022-08-19T08:54:53;7.63;;;3.58;;
42598;SDS011;28225;42.714;23.860;2022-08-19T08:58:06;3.33;;;2.90;;
42598;SDS011;28225;42.714;23.860;2022-08-19T09:00:10;5.53;;;3.45;;
42598;SDS011;28225;42.714;23.860;2022-08-19T09:02:39;3.35;;;3.08;;
42598;SDS011;28225;42.714;23.860;2022-08-19T09:05:04;7.43;;;3.60;;
42598;SDS011;28225;42.714;23.860;2022-08-19T09:13:05;3.55;;;3.22;;
42598;SDS011;28225;42.714;23.860;2022-08-19T09:18:39;3.63;;;2.85;;
42598;SDS011;28225;42.714;23.860;2022-08-19T09:21:12;5.75;;;3.13;;
42598;SDS011;28225;42.714;23.860;2022-08-19T09:23:39;3.40;;;3.10;;
42598;SDS011;28225;42.714;23.860;2022-08-19T09:26:11;3.22;;;2.90;;
42598;SDS011;28225;42.714;23.860;2022-08-19T09:28:44;3.42;;;3.13;;
42598;SDS011;28225;42.714;23.860;2022-08-19T09:31:11;2.95;;;2.75;;
42598;SDS011;28225;42.714;23.860;2022-08-19T09:33:37;4.32;;;2.88;;
42598;SDS011;28225;42.714;23.860;2022-08-19T09:36:07;7.43;;;3.15;;
42598;SDS011;28225;42.714;23.860;2022-08-19T09:38:35;5.28;;;2.88;;
42598;SDS011;28225;42.714;23.860;2022-08-19T09:41:04;3.67;;;3.05;;
42598;SDS011;28225;42.714;23.860;2022-08-19T09:43:31;3.13;;;2.80;;
42598;SDS011;28225;42.714;23.860;2022-08-19T09:45:57;3.85;;;3.17;;
42598;SDS011;28225;42.714;23.860;2022-08-19T09:48:23;8.77;;;3.83;;
42598;SDS011;28225;42.714;23.860;2022-08-19T09:50:48;5.03;;;3.47;;
42598;SDS011;28225;42.714;23.860;2022-08-19T09:53:16;6.03;;;3.38;;
42598;SDS011;28225;42.714;23.860;2022-08-19T09:55:42;6.57;;;3.45;;
42598;SDS011;28225;42.714;23.860;2022-08-19T09:58:08;2.90;;;2.67;;
42598;SDS011;28225;42.714;23.860;2022-08-19T10:00:33;3.97;;;3.03;;
42598;SDS011;28225;42.714;23.860;2022-08-19T10:02:59;4.65;;;3.15;;
42598;SDS011;28225;42.714;23.860;2022-08-19T10:05:25;3.83;;;2.70;;
42598;SDS011;28225;42.714;23.860;2022-08-19T10:08:09;16.35;;;3.63;;
42598;SDS011;28225;42.714;23.860;2022-08-19T10:10:36;4.80;;;2.72;;
42598;SDS011;28225;42.714;23.860;2022-08-19T10:13:02;5.38;;;2.67;;
42598;SDS011;28225;42.714;23.860;2022-08-19T10:15:28;2.83;;;2.53;;
42598;SDS011;28225;42.714;23.860;2022-08-19T10:17:53;4.00;;;2.80;;
42598;SDS011;28225;42.714;23.860;2022-08-19T10:20:18;3.10;;;2.42;;
42598;SDS011;28225;42.714;23.860;2022-08-19T10:22:44;3.58;;;2.72;;
42598;SDS011;28225;42.714;23.860;2022-08-19T10:25:10;4.35;;;2.58;;
42598;SDS011;28225;42.714;23.860;2022-08-19T10:27:36;3.42;;;2.60;;
42598;SDS011;28225;42.714;23.860;2022-08-19T10:30:03;5.65;;;3.22;;
42598;SDS011;28225;42.714;23.860;2022-08-19T10:32:30;8.20;;;2.75;;
42598;SDS011;28225;42.714;23.860;2022-08-19T10:34:56;5.38;;;3.42;;
42598;SDS011;28225;42.714;23.860;2022-08-19T10:37:21;4.10;;;2.30;;
42598;SDS011;28225;42.714;23.860;2022-08-19T10:39:47;2.58;;;2.38;;
42598;SDS011;28225;42.714;23.860;2022-08-19T10:42:13;3.70;;;2.53;;
42598;SDS011;28225;42.714;23.860;2022-08-19T10:44:39;2.25;;;2.05;;
42598;SDS011;28225;42.714;23.860;2022-08-19T10:47:05;4.18;;;2.72;;
42598;SDS011;28225;42.714;23.860;2022-08-19T10:49:30;3.95;;;2.50;;
42598;SDS011;28225;42.714;23.860;2022-08-19T10:51:57;2.95;;;2.25;;
42598;SDS011;28225;42.714;23.860;2022-08-19T10:54:41;2.38;;;2.03;;
42598;SDS011;28225;42.714;23.860;2022-08-19T10:57:25;7.90;;;2.75;;
42598;SDS011;28225;42.714;23.860;2022-08-19T10:59:55;5.75;;;2.10;;
42598;SDS011;28225;42.714;23.860;2022-08-19T11:02:21;3.15;;;2.63;;
42598;SDS011;28225;42.714;23.860;2022-08-19T11:04:47;3.33;;;2.83;;
42598;SDS011;28225;42.714;23.860;2022-08-19T11:07:14;2.55;;;2.30;;
42598;SDS011;28225;42.714;23.860;2022-08-19T11:09:40;3.85;;;2.70;;
42598;SDS011;28225;42.714;23.860;2022-08-19T11:12:07;3.30;;;2.90;;
42598;SDS011;28225;42.714;23.860;2022-08-19T11:14:33;4.97;;;2.60;;
42598;SDS011;28225;42.714;23.860;2022-08-19T11:17:00;5.20;;;2.88;;
42598;SDS011;28225;42.714;23.860;2022-08-19T11:19:25;5.65;;;2.72;;
42598;SDS011;28225;42.714;23.860;2022-08-19T11:21:51;4.50;;;2.35;;
42598;SDS011;28225;42.714;23.860;2022-08-19T11:26:47;8.07;;;3.15;;
42598;SDS011;28225;42.714;23.860;2022-08-19T11:29:14;2.72;;;2.53;;
42598;SDS011;28225;42.714;23.860;2022-08-19T11:31:41;3.35;;;2.70;;
42598;SDS011;28225;42.714;23.860;2022-08-19T11:34:09;3.67;;;2.70;;
42598;SDS011;28225;42.714;23.860;2022-08-19T11:36:37;8.13;;;2.80;;
42598;SDS011;28225;42.714;23.860;2022-08-19T11:39:05;4.85;;;3.00;;
42598;SDS011;28225;42.714;23.860;2022-08-19T11:41:32;3.93;;;3.07;;
42598;SDS011;28225;42.714;23.860;2022-08-19T11:43:57;3.97;;;3.00;;
42598;SDS011;28225;42.714;23.860;2022-08-19T11:46:24;7.15;;;3.83;;
42598;SDS011;28225;42.714;23.860;2022-08-19T11:48:50;4.93;;;3.05;;
42598;SDS011;28225;42.714;23.860;2022-08-19T11:51:17;3.65;;;3.00;;
42598;SDS011;28225;42.714;23.860;2022-08-19T11:53:46;5.30;;;2.78;;
42598;SDS011;28225;42.714;23.860;2022-08-19T11:56:12;3.40;;;3.10;;
42598;SDS011;28225;42.714;23.860;2022-08-19T11:58:38;5.90;;;2.88;;
42598;SDS011;28225;42.714;23.860;2022-08-19T12:01:08;4.90;;;3.08;;
42598;SDS011;28225;42.714;23.860;2022-08-19T12:03:34;6.30;;;3.38;;
42598;SDS011;28225;42.714;23.860;2022-08-19T12:06:06;4.75;;;2.85;;
42598;SDS011;28225;42.714;23.860;2022-08-19T12:08:33;4.32;;;3.08;;
42598;SDS011;28225;42.714;23.860;2022-08-19T12:10:59;4.00;;;2.92;;
42598;SDS011;28225;42.714;23.860;2022-08-19T12:13:26;5.40;;;3.38;;
42598;SDS011;28225;42.714;23.860;2022-08-19T12:15:55;4.22;;;2.72;;
42598;SDS011;28225;42.714;23.860;2022-08-19T12:18:21;3.92;;;2.88;;
42598;SDS011;28225;42.714;23.860;2022-08-19T12:20:46;6.10;;;3.53;;
42598;SDS011;28225;42.714;23.860;2022-08-19T12:23:12;4.68;;;3.50;;
42598;SDS011;28225;42.714;23.860;2022-08-19T12:25:43;3.38;;;2.80;;
42598;SDS011;28225;42.714;23.860;2022-08-19T12:28:15;5.60;;;3.45;;
42598;SDS011;28225;42.714;23.860;2022-08-19T12:30:41;3.88;;;3.20;;
42598;SDS011;28225;42.714;23.860;2022-08-19T12:33:07;4.20;;;3.45;;
42598;SDS011;28225;42.714;23.860;2022-08-19T12:35:33;9.73;;;4.40;;
42598;SDS011;28225;42.714;23.860;2022-08-19T12:37:59;9.25;;;3.75;;
42598;SDS011;28225;42.714;23.860;2022-08-19T12:40:25;4.15;;;3.63;;
42598;SDS011;28225;42.714;23.860;2022-08-19T12:42:50;3.25;;;3.05;;
42598;SDS011;28225;42.714;23.860;2022-08-19T12:45:16;4.45;;;3.60;;
42598;SDS011;28225;42.714;23.860;2022-08-19T12:47:41;11.32;;;3.78;;
42598;SDS011;28225;42.714;23.860;2022-08-19T12:50:08;4.72;;;4.20;;
42598;SDS011;28225;42.714;23.860;2022-08-19T12:52:34;4.85;;;4.10;;
42598;SDS011;28225;42.714;23.860;2022-08-19T12:55:03;4.63;;;3.88;;
42598;SDS011;28225;42.714;23.860;2022-08-19T12:57:30;6.30;;;4.00;;
42598;SDS011;28225;42.714;23.860;2022-08-19T12:59:58;5.20;;;3.63;;
42598;SDS011;28225;42.714;23.860;2022-08-19T13:02:30;5.18;;;3.55;;
42598;SDS011;28225;42.714;23.860;2022-08-19T13:04:57;5.25;;;3.60;;
42598;SDS011;28225;42.714;23.860;2022-08-19T13:07:23;5.13;;;3.35;;
42598;SDS011;28225;42.714;23.860;2022-08-19T13:09:50;4.30;;;3.63;;
42598;SDS011;28225;42.714;23.860;2022-08-19T13:12:16;5.97;;;3.27;;
42598;SDS011;28225;42.714;23.860;2022-08-19T13:25:26;4.60;;;4.05;;
42598;SDS011;28225;42.714;23.860;2022-08-19T13:27:52;3.92;;;3.58;;
42598;SDS011;28225;42.714;23.860;2022-08-19T13:30:18;4.18;;;3.63;;
42598;SDS011;28225;42.714;23.860;2022-08-19T13:33:03;3.78;;;3.47;;
42598;SDS011;28225;42.714;23.860;2022-08-19T13:35:51;6.90;;;3.78;;
42598;SDS011;28225;42.714;23.860;2022-08-19T13:38:22;7.32;;;3.60;;
42598;SDS011;28225;42.714;23.860;2022-08-19T13:40:48;4.10;;;3.70;;
42598;SDS011;28225;42.714;23.860;2022-08-19T13:43:15;5.93;;;3.45;;
42598;SDS011;28225;42.714;23.860;2022-08-19T13:45:42;10.68;;;3.97;;
42598;SDS011;28225;42.714;23.860;2022-08-19T13:48:07;6.90;;;3.80;;
42598;SDS011;28225;42.714;23.860;2022-08-19T13:50:34;36.00;;;5.90;;
42598;SDS011;28225;42.714;23.860;2022-08-19T13:53:06;4.38;;;3.97;;
42598;SDS011;28225;42.714;23.860;2022-08-19T13:55:32;6.60;;;4.55;;
42598;SDS011;28225;42.714;23.860;2022-08-19T13:57:58;6.15;;;3.50;;
42598;SDS011;28225;42.714;23.860;2022-08-19T14:00:27;8.00;;;4.05;;
42598;SDS011;28225;42.714;23.860;2022-08-19T14:02:54;4.65;;;3.55;;
42598;SDS011;28225;42.714;23.860;2022-08-19T14:05:21;4.60;;;3.75;;
42598;SDS011;28225;42.714;23.860;2022-08-19T14:07:47;7.32;;;3.92;;
42598;SDS011;28225;42.714;23.860;2022-08-19T14:10:13;8.30;;;4.95;;
42598;SDS011;28225;42.714;23.860;2022-08-19T14:12:39;5.05;;;3.70;;
42598;SDS011;28225;42.714;23.860;2022-08-19T14:15:05;6.05;;;4.20;;
42598;SDS011;28225;42.714;23.860;2022-08-19T14:17:33;5.20;;;3.92;;
42598;SDS011;28225;42.714;23.860;2022-08-19T14:20:00;4.20;;;3.80;;
42598;SDS011;28225;42.714;23.860;2022-08-19T14:22:29;4.35;;;3.95;;
42598;SDS011;28225;42.714;23.860;2022-08-19T14:24:56;4.70;;;3.95;;
42598;SDS011;28225;42.714;23.860;2022-08-19T14:27:21;15.93;;;4.07;;
42598;SDS011;28225;42.714;23.860;2022-08-19T14:29:50;5.38;;;3.70;;
42598;SDS011;28225;42.714;23.860;2022-08-19T14:32:16;7.47;;;3.95;;
42598;SDS011;28225;42.714;23.860;2022-08-19T14:34:41;5.72;;;3.88;;
42598;SDS011;28225;42.714;23.860;2022-08-19T14:37:07;6.50;;;3.85;;
42598;SDS011;28225;42.714;23.860;2022-08-19T14:39:34;10.55;;;4.13;;
42598;SDS011;28225;42.714;23.860;2022-08-19T14:41:59;4.88;;;4.40;;
42598;SDS011;28225;42.714;23.860;2022-08-19T14:44:26;6.95;;;3.95;;
42598;SDS011;28225;42.714;23.860;2022-08-19T14:46:51;4.53;;;4.13;;
42598;SDS011;28225;42.714;23.860;2022-08-19T14:49:18;9.07;;;4.15;;
42598;SDS011;28225;42.714;23.860;2022-08-19T14:51:43;5.68;;;4.13;;
42598;SDS011;28225;42.714;23.860;2022-08-19T14:54:10;5.15;;;4.45;;
42598;SDS011;28225;42.714;23.860;2022-08-19T14:56:36;4.38;;;3.70;;
42598;SDS011;28225;42.714;23.860;2022-08-19T14:59:02;5.28;;;3.80;;
42598;SDS011;28225;42.714;23.860;2022-08-19T15:01:28;6.90;;;4.32;;
42598;SDS011;28225;42.714;23.860;2022-08-19T15:03:53;4.95;;;4.00;;
42598;SDS011;28225;42.714;23.860;2022-08-19T15:06:20;6.72;;;3.97;;
42598;SDS011;28225;42.714;23.860;2022-08-19T15:08:47;4.80;;;4.28;;
42598;SDS011;28225;42.714;23.860;2022-08-19T15:11:14;8.98;;;4.93;;